Aviation

Metar/Speci

station

VRMH

METAR VRMH 040500Z 07004KT 8000 FEW018 SCT130 BKN270 30/24 Q1012=

7 minutes ago

VRMM

METAR VRMM 040500Z 29006KT 8000 FEW018TCU SCT120 BKN270 30/24 Q1012 NOSIG=

7 minutes ago

VRMK

METAR VRMK 040500Z 28006KT 9999 FEW018 SCT140 30/23 Q1012=

7 minutes ago

VRMT

METAR VRMT 040500Z 31013KT 9999 FEW018 BKN270 30/23 Q1011=

7 minutes ago

VRMG

METAR VRMG 040500Z 33012KT 9999 FEW018 BKN260 30/25 Q1011 NOSIG=

7 minutes ago

Synop

station

43533

AAXX 04034 43533 41457 79901 10270 20240 30101 40103 70522 81132 333 20240 59015 81819 87077 555 10060=

2 hours ago

43555

AAXX 04034 43555 41459 43204 10281 20238 30106 40108 70522 83231 333 20268 59010 83818 555 10139=

2 hours ago

43577

AAXX 04034 43577 42462 42706 10276 20227 30114 40116 82232 333 20264 59007 82818 84077 555 10065=

2 hours ago

43588

AAXX 04034 43588 42462 33214 10284 20225 30112 40113 82201 333 20262 59004 82818 555 10061=

2 hours ago

43599

AAXX 04034 43599 42460 73209 10286 20230 30108 40110 82202 333 20264 59005 82818 87076 555 10050=

2 hours ago

Tafs

station

VRMH

VRMH 040500Z 0406/0512 34005KT 8000 FEW018TCU TEMPO 0406/0412 FEW018CB=

10 minutes ago

VRMM

VRMM 040500Z 0406/0512 30010KT 9000 FEW018TCU TEMPO 0406/0412 FEW019CB=

10 minutes ago

VRMK

VRMK 040500Z 0406/0506 28007KT 9999 FEW018 TEMPO 0406/0412 FEW019CB=

10 minutes ago

VRMT

VRMT 040500Z 0406/0506 31015KT 9999 FEW018 TEMPO 0406/0412 FEW019CB=

10 minutes ago

VRMG

VRMG 040500Z 0406/0512 32011KT 9999 FEW018 TEMPO 0406/0412 FEW019CB=

10 minutes ago

Sigmet

Flight folders

No flight folder available at the moment.